sensor_id;sensor_type;location;lat;lon;timestamp;P1;durP1;ratioP1;P2;durP2;ratioP2
15498;SDS011;7851;52.260;6.030;2023-07-09T00:03:44;11.8;;;10.3;;
15498;SDS011;7851;52.260;6.030;2023-07-09T00:03:44;13.2;;;10.4;;
15498;SDS011;7851;52.260;6.030;2023-07-09T00:03:44;11.8;;;10.5;;
15498;SDS011;7851;52.260;6.030;2023-07-09T00:03:46;12.4;;;11.2;;
15498;SDS011;7851;52.260;6.030;2023-07-09T00:04:26;12.4;;;11.1;;
15498;SDS011;7851;52.260;6.030;2023-07-09T00:05:26;11.1;;;10;;
15498;SDS011;7851;52.260;6.030;2023-07-09T00:06:26;11.5;;;10.2;;
15498;SDS011;7851;52.260;6.030;2023-07-09T00:07:27;11.1;;;10.1;;
15498;SDS011;7851;52.260;6.030;2023-07-09T00:08:27;12;;;10.7;;
15498;SDS011;7851;52.260;6.030;2023-07-09T00:09:26;11.4;;;10.3;;
15498;SDS011;7851;52.260;6.030;2023-07-09T00:10:26;14.8;;;9.4;;
15498;SDS011;7851;52.260;6.030;2023-07-09T00:11:26;11.4;;;10.2;;
15498;SDS011;7851;52.260;6.030;2023-07-09T00:12:26;11.7;;;9.8;;
15498;SDS011;7851;52.260;6.030;2023-07-09T00:13:26;11.7;;;10.3;;
15498;SDS011;7851;52.260;6.030;2023-07-09T00:14:26;10.3;;;9.3;;
15498;SDS011;7851;52.260;6.030;2023-07-09T00:15:26;10.1;;;9.2;;
15498;SDS011;7851;52.260;6.030;2023-07-09T00:16:26;11.2;;;9.9;;
15498;SDS011;7851;52.260;6.030;2023-07-09T00:17:26;15;;;10.8;;
15498;SDS011;7851;52.260;6.030;2023-07-09T00:18:26;10.9;;;9.8;;
15498;SDS011;7851;52.260;6.030;2023-07-09T00:19:26;10.7;;;9.7;;
15498;SDS011;7851;52.260;6.030;2023-07-09T00:20:26;9.7;;;8.8;;
15498;SDS011;7851;52.260;6.030;2023-07-09T00:21:26;9;;;8.3;;
15498;SDS011;7851;52.260;6.030;2023-07-09T00:22:26;8.8;;;8;;
15498;SDS011;7851;52.260;6.030;2023-07-09T00:23:26;8.8;;;7.9;;
15498;SDS011;7851;52.260;6.030;2023-07-09T00:24:26;8.6;;;7.7;;
15498;SDS011;7851;52.260;6.030;2023-07-09T00:25:26;9.5;;;8.7;;
15498;SDS011;7851;52.260;6.030;2023-07-09T00:26:26;11.6;;;8.8;;
15498;SDS011;7851;52.260;6.030;2023-07-09T00:27:28;10;;;8.9;;
15498;SDS011;7851;52.260;6.030;2023-07-09T00:28:26;14.4;;;9.3;;
15498;SDS011;7851;52.260;6.030;2023-07-09T00:29:26;10.6;;;9.6;;
15498;SDS011;7851;52.260;6.030;2023-07-09T00:30:26;10.7;;;9.6;;
15498;SDS011;7851;52.260;6.030;2023-07-09T00:31:26;12.9;;;9.9;;
15498;SDS011;7851;52.260;6.030;2023-07-09T00:32:26;11.3;;;10.1;;
15498;SDS011;7851;52.260;6.030;2023-07-09T00:33:26;10.6;;;9.7;;
15498;SDS011;7851;52.260;6.030;2023-07-09T00:34:26;13.3;;;10.4;;
15498;SDS011;7851;52.260;6.030;2023-07-09T00:35:26;10.7;;;9.6;;
15498;SDS011;7851;52.260;6.030;2023-07-09T00:36:26;10.5;;;9.6;;
15498;SDS011;7851;52.260;6.030;2023-07-09T00:37:26;11.2;;;10.1;;
15498;SDS011;7851;52.260;6.030;2023-07-09T00:38:26;10.6;;;9.5;;
15498;SDS011;7851;52.260;6.030;2023-07-09T00:39:26;10.4;;;9.4;;
15498;SDS011;7851;52.260;6.030;2023-07-09T00:40:26;10.7;;;9.7;;
15498;SDS011;7851;52.260;6.030;2023-07-09T00:41:26;10.7;;;9.7;;
15498;SDS011;7851;52.260;6.030;2023-07-09T00:42:26;9.9;;;8.9;;
15498;SDS011;7851;52.260;6.030;2023-07-09T00:43:27;9.5;;;8.8;;
15498;SDS011;7851;52.260;6.030;2023-07-09T00:44:27;9.2;;;8.3;;
15498;SDS011;7851;52.260;6.030;2023-07-09T00:45:26;13.4;;;9.4;;
15498;SDS011;7851;52.260;6.030;2023-07-09T00:47:28;12.3;;;9.7;;
15498;SDS011;7851;52.260;6.030;2023-07-09T00:48:26;11.4;;;9.7;;
15498;SDS011;7851;52.260;6.030;2023-07-09T00:49:28;11.8;;;9.9;;
15498;SDS011;7851;52.260;6.030;2023-07-09T00:50:31;10.1;;;9.1;;
15498;SDS011;7851;52.260;6.030;2023-07-09T00:51:26;10.7;;;9.7;;
15498;SDS011;7851;52.260;6.030;2023-07-09T00:52:28;9.7;;;8.8;;
15498;SDS011;7851;52.260;6.030;2023-07-09T00:53:27;10.1;;;9;;
15498;SDS011;7851;52.260;6.030;2023-07-09T00:54:26;10.5;;;9.4;;
15498;SDS011;7851;52.260;6.030;2023-07-09T00:55:27;9.6;;;8.7;;
15498;SDS011;7851;52.260;6.030;2023-07-09T00:56:26;9.9;;;9;;
15498;SDS011;7851;52.260;6.030;2023-07-09T00:57:26;10.1;;;9.1;;
15498;SDS011;7851;52.260;6.030;2023-07-09T00:58:26;9.7;;;8.7;;
15498;SDS011;7851;52.260;6.030;2023-07-09T00:59:26;9.8;;;8.9;;
15498;SDS011;7851;52.260;6.030;2023-07-09T01:00:27;9;;;8.2;;
15498;SDS011;7851;52.260;6.030;2023-07-09T01:01:26;10.5;;;9.5;;
15498;SDS011;7851;52.260;6.030;2023-07-09T01:02:26;8.8;;;7.8;;
15498;SDS011;7851;52.260;6.030;2023-07-09T01:03:28;9.7;;;8.7;;
15498;SDS011;7851;52.260;6.030;2023-07-09T01:04:26;10.1;;;9;;
15498;SDS011;7851;52.260;6.030;2023-07-09T01:05:26;9;;;8.2;;
15498;SDS011;7851;52.260;6.030;2023-07-09T01:06:27;8.9;;;8.1;;
15498;SDS011;7851;52.260;6.030;2023-07-09T01:07:26;10.2;;;9.2;;
15498;SDS011;7851;52.260;6.030;2023-07-09T01:08:26;9.3;;;8.4;;
15498;SDS011;7851;52.260;6.030;2023-07-09T01:09:26;9.6;;;8.7;;
15498;SDS011;7851;52.260;6.030;2023-07-09T01:10:26;12;;;9.7;;
15498;SDS011;7851;52.260;6.030;2023-07-09T01:11:26;9.7;;;8.8;;
15498;SDS011;7851;52.260;6.030;2023-07-09T01:12:26;10.4;;;9.4;;
15498;SDS011;7851;52.260;6.030;2023-07-09T01:13:26;9.2;;;8.3;;
15498;SDS011;7851;52.260;6.030;2023-07-09T01:14:26;9.9;;;9;;
15498;SDS011;7851;52.260;6.030;2023-07-09T01:15:26;9.4;;;8.1;;
15498;SDS011;7851;52.260;6.030;2023-07-09T01:16:27;9.7;;;8.9;;
15498;SDS011;7851;52.260;6.030;2023-07-09T01:17:26;10.7;;;8.6;;
15498;SDS011;7851;52.260;6.030;2023-07-09T01:18:26;10.1;;;8.4;;
15498;SDS011;7851;52.260;6.030;2023-07-09T01:19:27;8.7;;;8;;
15498;SDS011;7851;52.260;6.030;2023-07-09T01:20:26;9.5;;;8.6;;
15498;SDS011;7851;52.260;6.030;2023-07-09T01:21:26;9.8;;;8.8;;
15498;SDS011;7851;52.260;6.030;2023-07-09T01:22:26;11.5;;;10;;
15498;SDS011;7851;52.260;6.030;2023-07-09T01:23:26;10.2;;;8.8;;
15498;SDS011;7851;52.260;6.030;2023-07-09T01:25:26;9.6;;;8.6;;
15498;SDS011;7851;52.260;6.030;2023-07-09T01:26:26;10.3;;;9.3;;
15498;SDS011;7851;52.260;6.030;2023-07-09T01:27:27;9.8;;;8.4;;
15498;SDS011;7851;52.260;6.030;2023-07-09T01:28:26;10.4;;;9.3;;
15498;SDS011;7851;52.260;6.030;2023-07-09T01:29:29;11.7;;;9.5;;
15498;SDS011;7851;52.260;6.030;2023-07-09T01:30:27;9.6;;;8.5;;
15498;SDS011;7851;52.260;6.030;2023-07-09T01:31:26;9.9;;;9;;
15498;SDS011;7851;52.260;6.030;2023-07-09T01:32:26;10.8;;;9.7;;
15498;SDS011;7851;52.260;6.030;2023-07-09T01:33:26;11.9;;;10;;
15498;SDS011;7851;52.260;6.030;2023-07-09T01:34:26;12.1;;;9.9;;
15498;SDS011;7851;52.260;6.030;2023-07-09T01:35:26;11;;;9.6;;
15498;SDS011;7851;52.260;6.030;2023-07-09T01:36:26;10.8;;;9.8;;
15498;SDS011;7851;52.260;6.030;2023-07-09T01:37:27;10.9;;;9.8;;
15498;SDS011;7851;52.260;6.030;2023-07-09T01:38:26;10.9;;;9.7;;
15498;SDS011;7851;52.260;6.030;2023-07-09T01:39:26;11.8;;;10.6;;
15498;SDS011;7851;52.260;6.030;2023-07-09T01:40:26;13.8;;;10.9;;
15498;SDS011;7851;52.260;6.030;2023-07-09T01:41:26;11.7;;;10.6;;
15498;SDS011;7851;52.260;6.030;2023-07-09T01:42:26;11.1;;;10;;
15498;SDS011;7851;52.260;6.030;2023-07-09T01:43:26;11.5;;;10.5;;
15498;SDS011;7851;52.260;6.030;2023-07-09T01:44:26;12;;;10.5;;
15498;SDS011;7851;52.260;6.030;2023-07-09T01:45:26;13.6;;;10.9;;
15498;SDS011;7851;52.260;6.030;2023-07-09T01:46:26;10.8;;;9.7;;
15498;SDS011;7851;52.260;6.030;2023-07-09T01:47:26;11;;;10;;
15498;SDS011;7851;52.260;6.030;2023-07-09T01:48:26;10.5;;;9.4;;
15498;SDS011;7851;52.260;6.030;2023-07-09T01:49:26;9.5;;;8.7;;
15498;SDS011;7851;52.260;6.030;2023-07-09T01:50:26;9.9;;;8.9;;
15498;SDS011;7851;52.260;6.030;2023-07-09T01:51:26;13;;;8.8;;
15498;SDS011;7851;52.260;6.030;2023-07-09T01:52:27;13.2;;;10;;
15498;SDS011;7851;52.260;6.030;2023-07-09T01:53:26;9.5;;;8.6;;
15498;SDS011;7851;52.260;6.030;2023-07-09T01:54:27;10.6;;;9.6;;
15498;SDS011;7851;52.260;6.030;2023-07-09T01:55:26;11.1;;;9.3;;
15498;SDS011;7851;52.260;6.030;2023-07-09T01:56:26;11.5;;;8.8;;
15498;SDS011;7851;52.260;6.030;2023-07-09T01:57:27;10.4;;;9.5;;
15498;SDS011;7851;52.260;6.030;2023-07-09T01:58:26;10.7;;;9.3;;
15498;SDS011;7851;52.260;6.030;2023-07-09T01:59:26;12;;;10.7;;
15498;SDS011;7851;52.260;6.030;2023-07-09T02:00:26;10.2;;;9.2;;
15498;SDS011;7851;52.260;6.030;2023-07-09T02:01:26;11;;;9.8;;
15498;SDS011;7851;52.260;6.030;2023-07-09T02:02:26;10.5;;;9.5;;
15498;SDS011;7851;52.260;6.030;2023-07-09T02:03:26;9.8;;;9;;
15498;SDS011;7851;52.260;6.030;2023-07-09T02:04:26;9.4;;;8.5;;
15498;SDS011;7851;52.260;6.030;2023-07-09T02:05:26;9.6;;;8.7;;
15498;SDS011;7851;52.260;6.030;2023-07-09T02:06:26;9.7;;;8.8;;
15498;SDS011;7851;52.260;6.030;2023-07-09T02:07:26;9.6;;;8.8;;
15498;SDS011;7851;52.260;6.030;2023-07-09T02:08:26;10.5;;;9.2;;
15498;SDS011;7851;52.260;6.030;2023-07-09T02:09:26;10.7;;;9.3;;
15498;SDS011;7851;52.260;6.030;2023-07-09T02:10:26;10.5;;;9.5;;
15498;SDS011;7851;52.260;6.030;2023-07-09T02:11:26;10;;;9;;
15498;SDS011;7851;52.260;6.030;2023-07-09T02:12:26;11;;;9.9;;
15498;SDS011;7851;52.260;6.030;2023-07-09T02:13:26;10.9;;;9.8;;
15498;SDS011;7851;52.260;6.030;2023-07-09T02:14:26;10;;;9.1;;
15498;SDS011;7851;52.260;6.030;2023-07-09T02:15:26;9.9;;;9;;
15498;SDS011;7851;52.260;6.030;2023-07-09T02:16:26;9.9;;;8.5;;
15498;SDS011;7851;52.260;6.030;2023-07-09T02:17:26;9.4;;;8.5;;
15498;SDS011;7851;52.260;6.030;2023-07-09T02:18:27;10.8;;;9;;
15498;SDS011;7851;52.260;6.030;2023-07-09T02:19:27;10.4;;;9.4;;
15498;SDS011;7851;52.260;6.030;2023-07-09T02:20:26;12.3;;;8.7;;
15498;SDS011;7851;52.260;6.030;2023-07-09T02:21:26;10.1;;;9.2;;
15498;SDS011;7851;52.260;6.030;2023-07-09T02:22:26;12.3;;;9.7;;
15498;SDS011;7851;52.260;6.030;2023-07-09T02:23:26;10.7;;;9.7;;
15498;SDS011;7851;52.260;6.030;2023-07-09T02:24:26;10.9;;;9.8;;
15498;SDS011;7851;52.260;6.030;2023-07-09T02:25:26;9.8;;;9;;
15498;SDS011;7851;52.260;6.030;2023-07-09T02:26:26;10.9;;;9.2;;
15498;SDS011;7851;52.260;6.030;2023-07-09T02:27:26;10.3;;;9.3;;
15498;SDS011;7851;52.260;6.030;2023-07-09T02:28:26;10;;;9.1;;
15498;SDS011;7851;52.260;6.030;2023-07-09T02:29:26;10.3;;;9.2;;
15498;SDS011;7851;52.260;6.030;2023-07-09T02:30:26;10.2;;;9.3;;
15498;SDS011;7851;52.260;6.030;2023-07-09T02:31:26;10.4;;;9.3;;
15498;SDS011;7851;52.260;6.030;2023-07-09T02:32:26;13.6;;;9.2;;
15498;SDS011;7851;52.260;6.030;2023-07-09T02:33:26;9.8;;;8.9;;
15498;SDS011;7851;52.260;6.030;2023-07-09T02:34:26;10.1;;;9.1;;
15498;SDS011;7851;52.260;6.030;2023-07-09T02:35:26;9.9;;;8.9;;
15498;SDS011;7851;52.260;6.030;2023-07-09T02:36:26;9.4;;;8.5;;
15498;SDS011;7851;52.260;6.030;2023-07-09T02:37:26;10.1;;;9;;
15498;SDS011;7851;52.260;6.030;2023-07-09T02:38:26;9.8;;;8.9;;
15498;SDS011;7851;52.260;6.030;2023-07-09T02:39:26;9.4;;;8.5;;
15498;SDS011;7851;52.260;6.030;2023-07-09T02:40:26;9.6;;;8.7;;
15498;SDS011;7851;52.260;6.030;2023-07-09T02:41:26;9.5;;;8.7;;
15498;SDS011;7851;52.260;6.030;2023-07-09T02:42:26;10.1;;;8.7;;
15498;SDS011;7851;52.260;6.030;2023-07-09T02:43:26;10.5;;;9.5;;
15498;SDS011;7851;52.260;6.030;2023-07-09T02:44:26;11.1;;;10.2;;
15498;SDS011;7851;52.260;6.030;2023-07-09T02:45:26;14.3;;;10.4;;
15498;SDS011;7851;52.260;6.030;2023-07-09T02:46:26;11.6;;;10.5;;
15498;SDS011;7851;52.260;6.030;2023-07-09T02:47:26;12.4;;;11;;
15498;SDS011;7851;52.260;6.030;2023-07-09T02:48:26;11.1;;;10.1;;
15498;SDS011;7851;52.260;6.030;2023-07-09T02:49:26;11.5;;;10.2;;
15498;SDS011;7851;52.260;6.030;2023-07-09T02:50:26;11.6;;;10.5;;
15498;SDS011;7851;52.260;6.030;2023-07-09T02:51:26;14.8;;;9.6;;
15498;SDS011;7851;52.260;6.030;2023-07-09T02:52:26;11.7;;;10.5;;
15498;SDS011;7851;52.260;6.030;2023-07-09T02:53:27;12.1;;;10.1;;
15498;SDS011;7851;52.260;6.030;2023-07-09T02:54:26;11.9;;;10.6;;
15498;SDS011;7851;52.260;6.030;2023-07-09T02:55:26;11.4;;;10.3;;
15498;SDS011;7851;52.260;6.030;2023-07-09T02:56:26;12.8;;;11.2;;
15498;SDS011;7851;52.260;6.030;2023-07-09T02:57:26;13.9;;;12;;
15498;SDS011;7851;52.260;6.030;2023-07-09T02:58:26;13;;;11.1;;
15498;SDS011;7851;52.260;6.030;2023-07-09T02:59:26;13.6;;;11.2;;
15498;SDS011;7851;52.260;6.030;2023-07-09T03:00:26;12.1;;;10.6;;
15498;SDS011;7851;52.260;6.030;2023-07-09T03:01:26;11.8;;;10.5;;
15498;SDS011;7851;52.260;6.030;2023-07-09T03:02:26;12.2;;;11;;
15498;SDS011;7851;52.260;6.030;2023-07-09T03:03:26;12;;;10.9;;
15498;SDS011;7851;52.260;6.030;2023-07-09T03:04:26;11.5;;;10.4;;
15498;SDS011;7851;52.260;6.030;2023-07-09T03:05:26;12;;;10.8;;
15498;SDS011;7851;52.260;6.030;2023-07-09T03:06:26;14.6;;;10.8;;
15498;SDS011;7851;52.260;6.030;2023-07-09T03:07:26;12.1;;;10.9;;
15498;SDS011;7851;52.260;6.030;2023-07-09T03:08:26;11.4;;;10.3;;
15498;SDS011;7851;52.260;6.030;2023-07-09T03:09:26;13.9;;;10.4;;
15498;SDS011;7851;52.260;6.030;2023-07-09T03:10:27;13.3;;;10.5;;
15498;SDS011;7851;52.260;6.030;2023-07-09T03:11:27;12.1;;;10.5;;
15498;SDS011;7851;52.260;6.030;2023-07-09T03:12:26;11.8;;;10.7;;
15498;SDS011;7851;52.260;6.030;2023-07-09T03:13:26;12.9;;;11.7;;
15498;SDS011;7851;52.260;6.030;2023-07-09T03:14:26;11.8;;;10.6;;
15498;SDS011;7851;52.260;6.030;2023-07-09T03:15:26;11.9;;;10.7;;
15498;SDS011;7851;52.260;6.030;2023-07-09T03:16:26;15.5;;;10.5;;
15498;SDS011;7851;52.260;6.030;2023-07-09T03:17:26;11.6;;;10.4;;
15498;SDS011;7851;52.260;6.030;2023-07-09T03:18:26;11.9;;;10.7;;
15498;SDS011;7851;52.260;6.030;2023-07-09T03:19:26;11.3;;;10.2;;
15498;SDS011;7851;52.260;6.030;2023-07-09T03:20:26;12.2;;;11;;
15498;SDS011;7851;52.260;6.030;2023-07-09T03:21:26;11.5;;;10.5;;
15498;SDS011;7851;52.260;6.030;2023-07-09T03:22:26;12;;;10.7;;
15498;SDS011;7851;52.260;6.030;2023-07-09T03:23:26;11.7;;;10.6;;
15498;SDS011;7851;52.260;6.030;2023-07-09T03:24:26;12.3;;;11.1;;
15498;SDS011;7851;52.260;6.030;2023-07-09T03:25:26;12.9;;;10.7;;
15498;SDS011;7851;52.260;6.030;2023-07-09T03:26:26;12.1;;;10.9;;
15498;SDS011;7851;52.260;6.030;2023-07-09T03:27:26;12.6;;;11.4;;
15498;SDS011;7851;52.260;6.030;2023-07-09T03:28:26;11.6;;;10.5;;
15498;SDS011;7851;52.260;6.030;2023-07-09T03:29:26;11.8;;;10.7;;
15498;SDS011;7851;52.260;6.030;2023-07-09T03:30:26;12.1;;;10.8;;
15498;SDS011;7851;52.260;6.030;2023-07-09T03:31:26;12.3;;;10.6;;
15498;SDS011;7851;52.260;6.030;2023-07-09T03:32:26;14.9;;;10.5;;
15498;SDS011;7851;52.260;6.030;2023-07-09T03:33:26;11.3;;;10.3;;
15498;SDS011;7851;52.260;6.030;2023-07-09T03:34:26;11.3;;;10.1;;
15498;SDS011;7851;52.260;6.030;2023-07-09T03:35:26;13.6;;;11.6;;
15498;SDS011;7851;52.260;6.030;2023-07-09T03:36:26;13.6;;;12.2;;
15498;SDS011;7851;52.260;6.030;2023-07-09T03:37:26;13.1;;;11.9;;
15498;SDS011;7851;52.260;6.030;2023-07-09T03:38:26;14.9;;;13.4;;
15498;SDS011;7851;52.260;6.030;2023-07-09T03:39:26;13.3;;;12;;
15498;SDS011;7851;52.260;6.030;2023-07-09T03:40:26;13.6;;;12.3;;
15498;SDS011;7851;52.260;6.030;2023-07-09T03:41:26;14.9;;;13.4;;
15498;SDS011;7851;52.260;6.030;2023-07-09T03:42:26;13.7;;;12.3;;
15498;SDS011;7851;52.260;6.030;2023-07-09T03:43:26;13.8;;;12.5;;
15498;SDS011;7851;52.260;6.030;2023-07-09T03:44:26;14.4;;;12.8;;
15498;SDS011;7851;52.260;6.030;2023-07-09T03:45:26;14;;;12.6;;
15498;SDS011;7851;52.260;6.030;2023-07-09T03:46:26;14.5;;;12.3;;
15498;SDS011;7851;52.260;6.030;2023-07-09T03:47:26;16.3;;;13.3;;
15498;SDS011;7851;52.260;6.030;2023-07-09T03:48:26;14.1;;;12.7;;
15498;SDS011;7851;52.260;6.030;2023-07-09T03:49:26;12.6;;;11.3;;
15498;SDS011;7851;52.260;6.030;2023-07-09T03:50:26;14.1;;;11.7;;
15498;SDS011;7851;52.260;6.030;2023-07-09T03:51:26;12.8;;;11.5;;
15498;SDS011;7851;52.260;6.030;2023-07-09T03:52:26;12.1;;;10.9;;
15498;SDS011;7851;52.260;6.030;2023-07-09T03:53:26;11.8;;;10.7;;
15498;SDS011;7851;52.260;6.030;2023-07-09T03:54:26;11;;;9.9;;
15498;SDS011;7851;52.260;6.030;2023-07-09T03:55:26;11.9;;;10.7;;
15498;SDS011;7851;52.260;6.030;2023-07-09T03:56:26;10.8;;;9.7;;
15498;SDS011;7851;52.260;6.030;2023-07-09T03:57:26;10.4;;;9.6;;
15498;SDS011;7851;52.260;6.030;2023-07-09T03:58:26;12;;;10.8;;
15498;SDS011;7851;52.260;6.030;2023-07-09T03:59:26;11.8;;;10.8;;
15498;SDS011;7851;52.260;6.030;2023-07-09T04:00:26;12.6;;;10;;
15498;SDS011;7851;52.260;6.030;2023-07-09T04:01:26;14.2;;;10.9;;
15498;SDS011;7851;52.260;6.030;2023-07-09T04:02:26;15.3;;;11.2;;
15498;SDS011;7851;52.260;6.030;2023-07-09T04:03:26;12.5;;;11.3;;
15498;SDS011;7851;52.260;6.030;2023-07-09T04:04:26;11.9;;;10.8;;
15498;SDS011;7851;52.260;6.030;2023-07-09T04:05:27;11.4;;;10.4;;
15498;SDS011;7851;52.260;6.030;2023-07-09T04:06:26;13.7;;;11.8;;
15498;SDS011;7851;52.260;6.030;2023-07-09T04:07:26;12.7;;;11.1;;
15498;SDS011;7851;52.260;6.030;2023-07-09T04:08:26;11.4;;;10.3;;
15498;SDS011;7851;52.260;6.030;2023-07-09T04:09:26;14.1;;;10.2;;
15498;SDS011;7851;52.260;6.030;2023-07-09T04:10:26;18.6;;;11.2;;
15498;SDS011;7851;52.260;6.030;2023-07-09T04:11:26;12.2;;;11.1;;
15498;SDS011;7851;52.260;6.030;2023-07-09T04:12:26;11.6;;;10.6;;
15498;SDS011;7851;52.260;6.030;2023-07-09T04:13:26;13.2;;;11.3;;
15498;SDS011;7851;52.260;6.030;2023-07-09T04:14:26;12.3;;;11.1;;
15498;SDS011;7851;52.260;6.030;2023-07-09T04:15:26;12.2;;;11.1;;
15498;SDS011;7851;52.260;6.030;2023-07-09T04:16:26;13.5;;;12.1;;
15498;SDS011;7851;52.260;6.030;2023-07-09T04:17:26;13.5;;;12.1;;
15498;SDS011;7851;52.260;6.030;2023-07-09T04:18:26;12.9;;;11.5;;
15498;SDS011;7851;52.260;6.030;2023-07-09T04:19:26;12.1;;;10.9;;
15498;SDS011;7851;52.260;6.030;2023-07-09T04:20:26;11.7;;;10.7;;
15498;SDS011;7851;52.260;6.030;2023-07-09T04:21:26;12.8;;;11.5;;
15498;SDS011;7851;52.260;6.030;2023-07-09T04:22:26;12.3;;;11.2;;
15498;SDS011;7851;52.260;6.030;2023-07-09T04:23:26;14;;;11.3;;
15498;SDS011;7851;52.260;6.030;2023-07-09T04:24:26;11.4;;;10.4;;
15498;SDS011;7851;52.260;6.030;2023-07-09T04:25:26;12.9;;;11.6;;
15498;SDS011;7851;52.260;6.030;2023-07-09T04:26:26;12.5;;;11.3;;
15498;SDS011;7851;52.260;6.030;2023-07-09T04:27:26;13.3;;;11.9;;
15498;SDS011;7851;52.260;6.030;2023-07-09T04:28:26;12.7;;;11.5;;
15498;SDS011;7851;52.260;6.030;2023-07-09T04:29:26;14.8;;;12.8;;
15498;SDS011;7851;52.260;6.030;2023-07-09T04:30:26;14.2;;;12.8;;
15498;SDS011;7851;52.260;6.030;2023-07-09T04:31:26;12.4;;;11.3;;
15498;SDS011;7851;52.260;6.030;2023-07-09T04:32:26;12.2;;;11.1;;
15498;SDS011;7851;52.260;6.030;2023-07-09T04:33:26;13.3;;;12;;
15498;SDS011;7851;52.260;6.030;2023-07-09T04:34:26;13.2;;;11.8;;
15498;SDS011;7851;52.260;6.030;2023-07-09T04:35:26;13;;;11.8;;
15498;SDS011;7851;52.260;6.030;2023-07-09T04:36:26;14;;;12.1;;
15498;SDS011;7851;52.260;6.030;2023-07-09T04:37:26;14.2;;;11.3;;
15498;SDS011;7851;52.260;6.030;2023-07-09T04:38:26;13.6;;;12.3;;
15498;SDS011;7851;52.260;6.030;2023-07-09T04:39:26;14.2;;;13;;
15498;SDS011;7851;52.260;6.030;2023-07-09T04:40:26;20.4;;;18.6;;
15498;SDS011;7851;52.260;6.030;2023-07-09T04:41:26;22.3;;;20.4;;
15498;SDS011;7851;52.260;6.030;2023-07-09T04:42:26;20.8;;;19;;
15498;SDS011;7851;52.260;6.030;2023-07-09T04:43:26;20.8;;;19.2;;
15498;SDS011;7851;52.260;6.030;2023-07-09T04:44:26;22.7;;;19.4;;
15498;SDS011;7851;52.260;6.030;2023-07-09T04:45:26;21.5;;;19.7;;
15498;SDS011;7851;52.260;6.030;2023-07-09T04:46:26;20.4;;;18.8;;
15498;SDS011;7851;52.260;6.030;2023-07-09T04:47:26;21.4;;;19.5;;
15498;SDS011;7851;52.260;6.030;2023-07-09T04:48:26;22;;;20.2;;
15498;SDS011;7851;52.260;6.030;2023-07-09T04:49:26;22;;;20.4;;
15498;SDS011;7851;52.260;6.030;2023-07-09T04:50:26;21.6;;;19.9;;
15498;SDS011;7851;52.260;6.030;2023-07-09T04:51:26;21.6;;;20;;
15498;SDS011;7851;52.260;6.030;2023-07-09T04:52:26;21.3;;;19.6;;
15498;SDS011;7851;52.260;6.030;2023-07-09T04:53:26;21.9;;;20;;
15498;SDS011;7851;52.260;6.030;2023-07-09T04:54:26;22.3;;;20.2;;
15498;SDS011;7851;52.260;6.030;2023-07-09T04:55:26;20.8;;;19.1;;
15498;SDS011;7851;52.260;6.030;2023-07-09T04:56:26;22.3;;;20.3;;
15498;SDS011;7851;52.260;6.030;2023-07-09T04:57:26;21.7;;;19.9;;
15498;SDS011;7851;52.260;6.030;2023-07-09T04:58:26;22.1;;;20.1;;
15498;SDS011;7851;52.260;6.030;2023-07-09T04:59:26;20.8;;;19.3;;
15498;SDS011;7851;52.260;6.030;2023-07-09T05:00:26;21.4;;;19.7;;
15498;SDS011;7851;52.260;6.030;2023-07-09T05:01:26;21.9;;;20.1;;
15498;SDS011;7851;52.260;6.030;2023-07-09T05:02:26;20.9;;;19.4;;
15498;SDS011;7851;52.260;6.030;2023-07-09T05:03:26;23.8;;;21.9;;
15498;SDS011;7851;52.260;6.030;2023-07-09T05:04:26;24.2;;;21.6;;
15498;SDS011;7851;52.260;6.030;2023-07-09T05:05:26;23.1;;;21;;
15498;SDS011;7851;52.260;6.030;2023-07-09T05:06:26;21.8;;;20.2;;
15498;SDS011;7851;52.260;6.030;2023-07-09T05:07:26;23.1;;;21.2;;
15498;SDS011;7851;52.260;6.030;2023-07-09T05:08:26;22.9;;;20.9;;
15498;SDS011;7851;52.260;6.030;2023-07-09T05:09:26;22.8;;;20.7;;
15498;SDS011;7851;52.260;6.030;2023-07-09T05:10:26;22.9;;;21.2;;
15498;SDS011;7851;52.260;6.030;2023-07-09T05:11:26;22.3;;;20.6;;
15498;SDS011;7851;52.260;6.030;2023-07-09T05:12:26;23.1;;;21.2;;
15498;SDS011;7851;52.260;6.030;2023-07-09T05:13:26;22.8;;;21;;
15498;SDS011;7851;52.260;6.030;2023-07-09T05:14:26;22.7;;;20.9;;
15498;SDS011;7851;52.260;6.030;2023-07-09T05:15:26;23.6;;;21.5;;
15498;SDS011;7851;52.260;6.030;2023-07-09T05:16:26;24.8;;;22.7;;
15498;SDS011;7851;52.260;6.030;2023-07-09T05:17:26;23.1;;;21.3;;
15498;SDS011;7851;52.260;6.030;2023-07-09T05:18:26;23.2;;;21.2;;
15498;SDS011;7851;52.260;6.030;2023-07-09T05:19:26;24.2;;;21.9;;
15498;SDS011;7851;52.260;6.030;2023-07-09T05:20:26;24.3;;;22.1;;
15498;SDS011;7851;52.260;6.030;2023-07-09T05:21:26;23.1;;;20.5;;
15498;SDS011;7851;52.260;6.030;2023-07-09T05:22:26;22.8;;;21;;
15498;SDS011;7851;52.260;6.030;2023-07-09T05:23:26;21.6;;;20;;
15498;SDS011;7851;52.260;6.030;2023-07-09T05:24:26;23.8;;;21.7;;
15498;SDS011;7851;52.260;6.030;2023-07-09T05:25:26;22.6;;;20.5;;
15498;SDS011;7851;52.260;6.030;2023-07-09T05:26:26;23.7;;;21.6;;
15498;SDS011;7851;52.260;6.030;2023-07-09T05:27:26;22.6;;;20.8;;
15498;SDS011;7851;52.260;6.030;2023-07-09T05:28:26;22.9;;;21;;
15498;SDS011;7851;52.260;6.030;2023-07-09T05:29:26;22.5;;;20.7;;
15498;SDS011;7851;52.260;6.030;2023-07-09T05:30:26;23.2;;;21.2;;
15498;SDS011;7851;52.260;6.030;2023-07-09T05:31:26;23.7;;;21.8;;
15498;SDS011;7851;52.260;6.030;2023-07-09T05:32:26;22.2;;;20.5;;
15498;SDS011;7851;52.260;6.030;2023-07-09T05:33:26;23;;;20.9;;
15498;SDS011;7851;52.260;6.030;2023-07-09T05:34:26;22.9;;;21.2;;
15498;SDS011;7851;52.260;6.030;2023-07-09T05:35:26;23.6;;;21.5;;
15498;SDS011;7851;52.260;6.030;2023-07-09T05:36:26;22.9;;;20.9;;
15498;SDS011;7851;52.260;6.030;2023-07-09T05:37:26;22.1;;;20.3;;
15498;SDS011;7851;52.260;6.030;2023-07-09T05:38:26;23.1;;;21.1;;
15498;SDS011;7851;52.260;6.030;2023-07-09T05:39:26;23.4;;;21.5;;
15498;SDS011;7851;52.260;6.030;2023-07-09T05:40:26;23.6;;;21.3;;
15498;SDS011;7851;52.260;6.030;2023-07-09T05:41:26;22.4;;;20.3;;
15498;SDS011;7851;52.260;6.030;2023-07-09T05:42:26;22.6;;;20.7;;
15498;SDS011;7851;52.260;6.030;2023-07-09T05:43:26;23;;;21.1;;
15498;SDS011;7851;52.260;6.030;2023-07-09T05:44:26;23.3;;;21.3;;
15498;SDS011;7851;52.260;6.030;2023-07-09T05:45:26;23.3;;;21.5;;
15498;SDS011;7851;52.260;6.030;2023-07-09T05:46:26;23.1;;;21.3;;
15498;SDS011;7851;52.260;6.030;2023-07-09T05:47:26;23.6;;;21.7;;
15498;SDS011;7851;52.260;6.030;2023-07-09T05:48:26;22.7;;;20.8;;
15498;SDS011;7851;52.260;6.030;2023-07-09T05:49:26;22.5;;;20.7;;
15498;SDS011;7851;52.260;6.030;2023-07-09T05:50:26;22.8;;;20.9;;
15498;SDS011;7851;52.260;6.030;2023-07-09T05:51:26;23.4;;;21.4;;
15498;SDS011;7851;52.260;6.030;2023-07-09T05:52:26;22.8;;;20.9;;
15498;SDS011;7851;52.260;6.030;2023-07-09T05:53:26;21.7;;;19.9;;
15498;SDS011;7851;52.260;6.030;2023-07-09T05:54:26;22.4;;;20.6;;
15498;SDS011;7851;52.260;6.030;2023-07-09T05:55:26;22.2;;;20.3;;
15498;SDS011;7851;52.260;6.030;2023-07-09T05:56:26;23;;;21;;
15498;SDS011;7851;52.260;6.030;2023-07-09T05:57:26;24.7;;;22.2;;
15498;SDS011;7851;52.260;6.030;2023-07-09T05:58:26;22.2;;;20.5;;
15498;SDS011;7851;52.260;6.030;2023-07-09T05:59:26;24.2;;;22.1;;
15498;SDS011;7851;52.260;6.030;2023-07-09T06:00:26;23.7;;;21.7;;
15498;SDS011;7851;52.260;6.030;2023-07-09T06:01:26;22.8;;;21;;
15498;SDS011;7851;52.260;6.030;2023-07-09T06:02:26;23.9;;;22.1;;
15498;SDS011;7851;52.260;6.030;2023-07-09T06:03:26;24.8;;;22.6;;
15498;SDS011;7851;52.260;6.030;2023-07-09T06:04:26;24;;;22.1;;
15498;SDS011;7851;52.260;6.030;2023-07-09T06:05:26;23.8;;;21.9;;
15498;SDS011;7851;52.260;6.030;2023-07-09T06:06:26;25.5;;;23.1;;
15498;SDS011;7851;52.260;6.030;2023-07-09T06:07:26;23.9;;;21.9;;
15498;SDS011;7851;52.260;6.030;2023-07-09T06:08:26;25.2;;;23.1;;
15498;SDS011;7851;52.260;6.030;2023-07-09T06:09:26;23.6;;;21.6;;
15498;SDS011;7851;52.260;6.030;2023-07-09T06:10:26;25;;;22.9;;
15498;SDS011;7851;52.260;6.030;2023-07-09T06:11:26;25;;;23.1;;
15498;SDS011;7851;52.260;6.030;2023-07-09T06:12:26;24.2;;;22.2;;
15498;SDS011;7851;52.260;6.030;2023-07-09T06:13:26;24;;;22.2;;
15498;SDS011;7851;52.260;6.030;2023-07-09T06:14:26;25.2;;;23.1;;